Terminal Aerodrome Forecast
Issued by NWS Sioux Falls, SD

Home | Current Version | Previous Version | Text Only | Print | Product List | Glossary On
Versions: 1 2 3 4 5 6 7 8 9 10 11 12 13 14 15
989
FTUS43 KFSD 151701 AAA
TAFHON
TAF AMD
KHON 151701Z 1517/1612 24011G16KT P6SM SCT120
     FM152000 28013G19KT P6SM SKC
     FM160000 29007KT P6SM SKC
     FM160700 23004KT P6SM SKC
     FM161100 17004KT P6SM FEW250=

USA.gov is the U.S. government's official web portal to all federal, state and local government web resources and services.